sensor_id;sensor_type;location;lat;lon;timestamp;P1;durP1;ratioP1;P2;durP2;ratioP2
7843;SDS011;3967;48.702;9.326;2023-03-20T00:02:10;2.90;;;2.70;;
7843;SDS011;3967;48.702;9.326;2023-03-20T00:04:46;4.47;;;3.50;;
7843;SDS011;3967;48.702;9.326;2023-03-20T00:07:13;4.10;;;3.70;;
7843;SDS011;3967;48.702;9.326;2023-03-20T00:09:40;4.40;;;4.00;;
7843;SDS011;3967;48.702;9.326;2023-03-20T00:12:09;3.53;;;3.30;;
7843;SDS011;3967;48.702;9.326;2023-03-20T00:14:41;3.93;;;3.57;;
7843;SDS011;3967;48.702;9.326;2023-03-20T00:17:09;5.07;;;3.67;;
7843;SDS011;3967;48.702;9.326;2023-03-20T00:19:38;4.20;;;3.80;;
7843;SDS011;3967;48.702;9.326;2023-03-20T00:22:04;6.23;;;4.23;;
7843;SDS011;3967;48.702;9.326;2023-03-20T00:24:31;3.63;;;3.33;;
7843;SDS011;3967;48.702;9.326;2023-03-20T00:26:58;3.83;;;3.53;;
7843;SDS011;3967;48.702;9.326;2023-03-20T00:29:25;3.83;;;3.53;;
7843;SDS011;3967;48.702;9.326;2023-03-20T00:31:55;3.70;;;3.33;;
7843;SDS011;3967;48.702;9.326;2023-03-20T00:34:23;3.47;;;3.20;;
7843;SDS011;3967;48.702;9.326;2023-03-20T00:36:52;2.60;;;2.40;;
7843;SDS011;3967;48.702;9.326;2023-03-20T00:39:19;4.03;;;2.10;;
7843;SDS011;3967;48.702;9.326;2023-03-20T00:41:48;4.47;;;2.40;;
7843;SDS011;3967;48.702;9.326;2023-03-20T00:46:48;2.07;;;1.97;;
7843;SDS011;3967;48.702;9.326;2023-03-20T00:49:30;1.80;;;1.70;;
7843;SDS011;3967;48.702;9.326;2023-03-20T00:51:58;1.87;;;1.73;;
7843;SDS011;3967;48.702;9.326;2023-03-20T00:54:26;3.20;;;2.00;;
7843;SDS011;3967;48.702;9.326;2023-03-20T00:56:55;2.07;;;1.87;;
7843;SDS011;3967;48.702;9.326;2023-03-20T00:59:30;2.40;;;1.90;;
7843;SDS011;3967;48.702;9.326;2023-03-20T01:01:59;2.43;;;2.03;;
7843;SDS011;3967;48.702;9.326;2023-03-20T01:04:31;2.30;;;2.10;;
7843;SDS011;3967;48.702;9.326;2023-03-20T01:07:01;2.87;;;2.10;;
7843;SDS011;3967;48.702;9.326;2023-03-20T01:09:28;2.97;;;1.80;;
7843;SDS011;3967;48.702;9.326;2023-03-20T01:11:55;2.17;;;1.80;;
7843;SDS011;3967;48.702;9.326;2023-03-20T01:14:23;2.33;;;1.93;;
7843;SDS011;3967;48.702;9.326;2023-03-20T01:16:51;2.30;;;1.67;;
7843;SDS011;3967;48.702;9.326;2023-03-20T01:19:18;1.70;;;1.60;;
7843;SDS011;3967;48.702;9.326;2023-03-20T01:21:45;3.80;;;1.67;;
7843;SDS011;3967;48.702;9.326;2023-03-20T01:24:11;1.80;;;1.70;;
7843;SDS011;3967;48.702;9.326;2023-03-20T01:26:39;1.80;;;1.70;;
7843;SDS011;3967;48.702;9.326;2023-03-20T01:29:23;1.90;;;1.80;;
7843;SDS011;3967;48.702;9.326;2023-03-20T01:31:52;1.77;;;1.60;;
7843;SDS011;3967;48.702;9.326;2023-03-20T01:34:19;4.63;;;2.03;;
7843;SDS011;3967;48.702;9.326;2023-03-20T01:36:50;2.17;;;1.40;;
7843;SDS011;3967;48.702;9.326;2023-03-20T01:39:29;1.90;;;1.70;;
7843;SDS011;3967;48.702;9.326;2023-03-20T01:42:00;1.80;;;1.70;;
7843;SDS011;3967;48.702;9.326;2023-03-20T01:44:29;1.53;;;1.43;;
7843;SDS011;3967;48.702;9.326;2023-03-20T01:46:57;1.90;;;1.80;;
7843;SDS011;3967;48.702;9.326;2023-03-20T01:51:54;1.50;;;1.40;;
7843;SDS011;3967;48.702;9.326;2023-03-20T01:54:26;1.73;;;1.53;;
7843;SDS011;3967;48.702;9.326;2023-03-20T01:57:06;1.67;;;1.57;;
7843;SDS011;3967;48.702;9.326;2023-03-20T01:59:44;1.50;;;1.40;;
7843;SDS011;3967;48.702;9.326;2023-03-20T02:02:16;1.57;;;1.47;;
7843;SDS011;3967;48.702;9.326;2023-03-20T02:04:47;1.50;;;1.40;;
7843;SDS011;3967;48.702;9.326;2023-03-20T02:07:19;1.43;;;1.33;;
7843;SDS011;3967;48.702;9.326;2023-03-20T02:09:48;1.73;;;1.63;;
7843;SDS011;3967;48.702;9.326;2023-03-20T02:12:15;1.90;;;1.63;;
7843;SDS011;3967;48.702;9.326;2023-03-20T02:14:44;1.33;;;1.30;;
7843;SDS011;3967;48.702;9.326;2023-03-20T02:17:12;1.93;;;1.60;;
7843;SDS011;3967;48.702;9.326;2023-03-20T02:22:23;2.00;;;1.80;;
7843;SDS011;3967;48.702;9.326;2023-03-20T02:37:21;2.07;;;1.30;;
7843;SDS011;3967;48.702;9.326;2023-03-20T02:45:33;1.30;;;1.20;;
7843;SDS011;3967;48.702;9.326;2023-03-20T02:50:49;2.67;;;1.70;;
7843;SDS011;3967;48.702;9.326;2023-03-20T02:53:18;2.03;;;1.30;;
7843;SDS011;3967;48.702;9.326;2023-03-20T02:58:45;1.60;;;1.50;;
7843;SDS011;3967;48.702;9.326;2023-03-20T03:01:14;1.17;;;1.00;;
7843;SDS011;3967;48.702;9.326;2023-03-20T03:03:50;2.03;;;1.47;;
7843;SDS011;3967;48.702;9.326;2023-03-20T03:08:57;1.40;;;1.30;;
7843;SDS011;3967;48.702;9.326;2023-03-20T03:11:33;1.10;;;1.10;;
7843;SDS011;3967;48.702;9.326;2023-03-20T03:14:03;1.13;;;1.10;;
7843;SDS011;3967;48.702;9.326;2023-03-20T03:16:32;2.07;;;1.27;;
7843;SDS011;3967;48.702;9.326;2023-03-20T03:19:12;2.30;;;1.70;;
7843;SDS011;3967;48.702;9.326;2023-03-20T03:21:45;1.40;;;1.30;;
7843;SDS011;3967;48.702;9.326;2023-03-20T03:24:32;1.20;;;1.10;;
7843;SDS011;3967;48.702;9.326;2023-03-20T03:27:17;1.30;;;1.20;;
7843;SDS011;3967;48.702;9.326;2023-03-20T03:30:23;1.40;;;1.30;;
7843;SDS011;3967;48.702;9.326;2023-03-20T03:35:45;1.50;;;1.40;;
7843;SDS011;3967;48.702;9.326;2023-03-20T03:38:33;2.27;;;1.23;;
7843;SDS011;3967;48.702;9.326;2023-03-20T03:43:50;1.40;;;1.30;;
7843;SDS011;3967;48.702;9.326;2023-03-20T03:46:24;1.60;;;1.50;;
7843;SDS011;3967;48.702;9.326;2023-03-20T03:49:11;1.47;;;1.37;;
7843;SDS011;3967;48.702;9.326;2023-03-20T03:51:44;1.07;;;1.07;;
7843;SDS011;3967;48.702;9.326;2023-03-20T03:54:24;1.13;;;1.07;;
7843;SDS011;3967;48.702;9.326;2023-03-20T03:56:55;1.50;;;1.40;;
7843;SDS011;3967;48.702;9.326;2023-03-20T03:59:26;1.50;;;1.20;;
7843;SDS011;3967;48.702;9.326;2023-03-20T04:01:58;1.43;;;1.20;;
7843;SDS011;3967;48.702;9.326;2023-03-20T04:04:29;1.13;;;1.13;;
7843;SDS011;3967;48.702;9.326;2023-03-20T04:06:57;1.50;;;1.40;;
7843;SDS011;3967;48.702;9.326;2023-03-20T04:09:24;0.80;;;0.80;;
7843;SDS011;3967;48.702;9.326;2023-03-20T04:11:51;1.07;;;0.93;;
7843;SDS011;3967;48.702;9.326;2023-03-20T04:14:18;0.90;;;0.90;;
7843;SDS011;3967;48.702;9.326;2023-03-20T04:16:45;1.00;;;1.00;;
7843;SDS011;3967;48.702;9.326;2023-03-20T04:19:12;0.87;;;0.80;;
7843;SDS011;3967;48.702;9.326;2023-03-20T04:21:39;1.03;;;1.03;;
7843;SDS011;3967;48.702;9.326;2023-03-20T04:24:06;1.20;;;1.10;;
7843;SDS011;3967;48.702;9.326;2023-03-20T04:26:33;2.73;;;0.93;;
7843;SDS011;3967;48.702;9.326;2023-03-20T04:28:59;1.03;;;1.00;;
7843;SDS011;3967;48.702;9.326;2023-03-20T04:31:26;0.87;;;0.87;;
7843;SDS011;3967;48.702;9.326;2023-03-20T04:33:53;1.00;;;1.00;;
7843;SDS011;3967;48.702;9.326;2023-03-20T04:36:20;1.13;;;1.03;;
7843;SDS011;3967;48.702;9.326;2023-03-20T04:38:47;1.03;;;0.93;;
7843;SDS011;3967;48.702;9.326;2023-03-20T04:41:14;1.10;;;1.10;;
7843;SDS011;3967;48.702;9.326;2023-03-20T04:43:40;0.93;;;0.93;;
7843;SDS011;3967;48.702;9.326;2023-03-20T04:46:07;1.37;;;1.27;;
7843;SDS011;3967;48.702;9.326;2023-03-20T04:48:34;0.90;;;0.90;;
7843;SDS011;3967;48.702;9.326;2023-03-20T04:51:01;1.33;;;1.17;;
7843;SDS011;3967;48.702;9.326;2023-03-20T04:53:27;1.80;;;1.00;;
7843;SDS011;3967;48.702;9.326;2023-03-20T04:55:54;1.60;;;1.30;;
7843;SDS011;3967;48.702;9.326;2023-03-20T04:58:21;1.27;;;1.17;;
7843;SDS011;3967;48.702;9.326;2023-03-20T05:00:48;1.07;;;1.07;;
7843;SDS011;3967;48.702;9.326;2023-03-20T05:03:15;1.03;;;1.00;;
7843;SDS011;3967;48.702;9.326;2023-03-20T05:05:42;1.53;;;1.10;;
7843;SDS011;3967;48.702;9.326;2023-03-20T05:08:09;1.10;;;1.10;;
7843;SDS011;3967;48.702;9.326;2023-03-20T05:10:36;1.30;;;1.20;;
7843;SDS011;3967;48.702;9.326;2023-03-20T05:13:02;1.10;;;1.00;;
7843;SDS011;3967;48.702;9.326;2023-03-20T05:15:29;1.00;;;1.00;;
7843;SDS011;3967;48.702;9.326;2023-03-20T05:17:57;1.60;;;1.10;;
7843;SDS011;3967;48.702;9.326;2023-03-20T05:20:23;2.03;;;1.17;;
7843;SDS011;3967;48.702;9.326;2023-03-20T05:22:50;1.50;;;1.00;;
7843;SDS011;3967;48.702;9.326;2023-03-20T05:25:17;0.87;;;0.87;;
7843;SDS011;3967;48.702;9.326;2023-03-20T05:27:44;1.23;;;1.13;;
7843;SDS011;3967;48.702;9.326;2023-03-20T05:30:12;1.43;;;1.33;;
7843;SDS011;3967;48.702;9.326;2023-03-20T05:32:40;1.00;;;0.90;;
7843;SDS011;3967;48.702;9.326;2023-03-20T05:35:09;1.67;;;0.80;;
7843;SDS011;3967;48.702;9.326;2023-03-20T05:37:37;1.50;;;1.17;;
7843;SDS011;3967;48.702;9.326;2023-03-20T05:40:04;1.30;;;1.10;;
7843;SDS011;3967;48.702;9.326;2023-03-20T05:42:31;0.90;;;0.90;;
7843;SDS011;3967;48.702;9.326;2023-03-20T05:44:58;1.63;;;1.27;;
7843;SDS011;3967;48.702;9.326;2023-03-20T05:47:25;2.60;;;1.30;;
7843;SDS011;3967;48.702;9.326;2023-03-20T05:49:52;1.33;;;1.10;;
7843;SDS011;3967;48.702;9.326;2023-03-20T05:52:19;3.53;;;1.37;;
7843;SDS011;3967;48.702;9.326;2023-03-20T05:54:45;2.10;;;1.50;;
7843;SDS011;3967;48.702;9.326;2023-03-20T05:57:12;3.20;;;1.80;;
7843;SDS011;3967;48.702;9.326;2023-03-20T05:59:40;2.93;;;1.53;;
7843;SDS011;3967;48.702;9.326;2023-03-20T06:02:07;2.90;;;1.70;;
7843;SDS011;3967;48.702;9.326;2023-03-20T06:04:33;4.73;;;1.70;;
7843;SDS011;3967;48.702;9.326;2023-03-20T06:07:02;1.50;;;1.40;;
7843;SDS011;3967;48.702;9.326;2023-03-20T06:09:30;1.20;;;1.10;;
7843;SDS011;3967;48.702;9.326;2023-03-20T06:11:58;1.40;;;1.30;;
7843;SDS011;3967;48.702;9.326;2023-03-20T06:14:24;2.90;;;1.40;;
7843;SDS011;3967;48.702;9.326;2023-03-20T06:16:51;1.20;;;1.10;;
7843;SDS011;3967;48.702;9.326;2023-03-20T06:19:19;1.27;;;1.17;;
7843;SDS011;3967;48.702;9.326;2023-03-20T06:21:47;2.30;;;1.10;;
7843;SDS011;3967;48.702;9.326;2023-03-20T06:24:15;1.33;;;1.23;;
7843;SDS011;3967;48.702;9.326;2023-03-20T06:26:41;1.80;;;1.00;;
7843;SDS011;3967;48.702;9.326;2023-03-20T06:29:09;1.73;;;1.17;;
7843;SDS011;3967;48.702;9.326;2023-03-20T06:31:35;1.40;;;1.30;;
7843;SDS011;3967;48.702;9.326;2023-03-20T06:34:02;1.57;;;0.97;;
7843;SDS011;3967;48.702;9.326;2023-03-20T06:36:30;1.27;;;0.90;;
7843;SDS011;3967;48.702;9.326;2023-03-20T06:38:57;1.50;;;1.10;;
7843;SDS011;3967;48.702;9.326;2023-03-20T06:41:24;1.00;;;1.00;;
7843;SDS011;3967;48.702;9.326;2023-03-20T06:43:59;1.27;;;1.00;;
7843;SDS011;3967;48.702;9.326;2023-03-20T06:46:26;1.10;;;1.00;;
7843;SDS011;3967;48.702;9.326;2023-03-20T06:48:53;1.27;;;1.17;;
7843;SDS011;3967;48.702;9.326;2023-03-20T06:51:20;1.43;;;1.10;;
7843;SDS011;3967;48.702;9.326;2023-03-20T06:53:47;1.53;;;1.20;;
7843;SDS011;3967;48.702;9.326;2023-03-20T06:56:14;3.07;;;1.60;;
7843;SDS011;3967;48.702;9.326;2023-03-20T06:58:41;1.73;;;1.63;;
7843;SDS011;3967;48.702;9.326;2023-03-20T07:01:11;3.27;;;1.70;;
7843;SDS011;3967;48.702;9.326;2023-03-20T07:03:42;1.30;;;1.20;;
7843;SDS011;3967;48.702;9.326;2023-03-20T07:06:09;1.10;;;1.10;;
7843;SDS011;3967;48.702;9.326;2023-03-20T07:08:37;2.23;;;1.60;;
7843;SDS011;3967;48.702;9.326;2023-03-20T07:11:05;2.90;;;1.40;;
7843;SDS011;3967;48.702;9.326;2023-03-20T07:13:32;1.33;;;1.23;;
7843;SDS011;3967;48.702;9.326;2023-03-20T07:15:59;1.60;;;1.10;;
7843;SDS011;3967;48.702;9.326;2023-03-20T07:18:30;1.07;;;0.93;;
7843;SDS011;3967;48.702;9.326;2023-03-20T07:21:01;2.10;;;1.30;;
7843;SDS011;3967;48.702;9.326;2023-03-20T07:23:30;1.53;;;1.10;;
7843;SDS011;3967;48.702;9.326;2023-03-20T07:25:57;1.20;;;1.10;;
7843;SDS011;3967;48.702;9.326;2023-03-20T07:28:24;1.90;;;0.90;;
7843;SDS011;3967;48.702;9.326;2023-03-20T07:30:52;5.50;;;1.47;;
7843;SDS011;3967;48.702;9.326;2023-03-20T07:33:19;1.10;;;0.90;;
7843;SDS011;3967;48.702;9.326;2023-03-20T07:35:46;1.40;;;1.30;;
7843;SDS011;3967;48.702;9.326;2023-03-20T07:38:17;3.43;;;1.60;;
7843;SDS011;3967;48.702;9.326;2023-03-20T07:40:44;3.07;;;1.57;;
7843;SDS011;3967;48.702;9.326;2023-03-20T07:43:11;1.50;;;1.40;;
7843;SDS011;3967;48.702;9.326;2023-03-20T07:45:37;1.27;;;1.17;;
7843;SDS011;3967;48.702;9.326;2023-03-20T07:48:04;1.03;;;1.00;;
7843;SDS011;3967;48.702;9.326;2023-03-20T07:50:31;1.50;;;1.30;;
7843;SDS011;3967;48.702;9.326;2023-03-20T07:52:58;1.53;;;1.43;;
7843;SDS011;3967;48.702;9.326;2023-03-20T07:55:25;1.40;;;1.30;;
7843;SDS011;3967;48.702;9.326;2023-03-20T07:57:52;1.30;;;1.17;;
7843;SDS011;3967;48.702;9.326;2023-03-20T08:00:18;1.80;;;1.30;;
7843;SDS011;3967;48.702;9.326;2023-03-20T08:02:45;1.50;;;1.10;;
7843;SDS011;3967;48.702;9.326;2023-03-20T08:05:12;2.93;;;1.40;;
7843;SDS011;3967;48.702;9.326;2023-03-20T08:07:39;2.03;;;1.43;;
7843;SDS011;3967;48.702;9.326;2023-03-20T08:10:06;1.10;;;1.00;;
7843;SDS011;3967;48.702;9.326;2023-03-20T08:12:34;3.70;;;1.00;;
7843;SDS011;3967;48.702;9.326;2023-03-20T08:15:01;2.10;;;1.00;;
7843;SDS011;3967;48.702;9.326;2023-03-20T08:17:27;1.20;;;0.80;;
7843;SDS011;3967;48.702;9.326;2023-03-20T08:19:54;1.27;;;0.90;;
7843;SDS011;3967;48.702;9.326;2023-03-20T08:22:21;1.13;;;0.80;;
7843;SDS011;3967;48.702;9.326;2023-03-20T08:24:48;1.07;;;0.70;;
7843;SDS011;3967;48.702;9.326;2023-03-20T08:27:15;0.70;;;0.70;;
7843;SDS011;3967;48.702;9.326;2023-03-20T08:29:42;1.37;;;0.80;;
7843;SDS011;3967;48.702;9.326;2023-03-20T08:32:09;1.33;;;0.80;;
7843;SDS011;3967;48.702;9.326;2023-03-20T08:34:35;0.77;;;0.70;;
7843;SDS011;3967;48.702;9.326;2023-03-20T08:37:03;0.87;;;0.57;;
7843;SDS011;3967;48.702;9.326;2023-03-20T08:39:30;1.40;;;0.83;;
7843;SDS011;3967;48.702;9.326;2023-03-20T08:41:58;0.70;;;0.70;;
7843;SDS011;3967;48.702;9.326;2023-03-20T08:44:26;3.20;;;0.70;;
7843;SDS011;3967;48.702;9.326;2023-03-20T08:46:53;2.10;;;0.80;;
7843;SDS011;3967;48.702;9.326;2023-03-20T08:49:20;2.30;;;0.60;;
7843;SDS011;3967;48.702;9.326;2023-03-20T08:51:47;0.90;;;0.50;;
7843;SDS011;3967;48.702;9.326;2023-03-20T08:54:13;0.50;;;0.50;;
7843;SDS011;3967;48.702;9.326;2023-03-20T08:56:43;0.60;;;0.60;;
7843;SDS011;3967;48.702;9.326;2023-03-20T08:59:11;1.53;;;0.70;;
7843;SDS011;3967;48.702;9.326;2023-03-20T09:01:38;0.73;;;0.50;;
7843;SDS011;3967;48.702;9.326;2023-03-20T09:04:15;0.70;;;0.70;;
7843;SDS011;3967;48.702;9.326;2023-03-20T09:06:42;0.60;;;0.40;;
7843;SDS011;3967;48.702;9.326;2023-03-20T09:09:09;0.67;;;0.67;;
7843;SDS011;3967;48.702;9.326;2023-03-20T09:11:36;3.67;;;0.87;;
7843;SDS011;3967;48.702;9.326;2023-03-20T09:14:02;0.60;;;0.60;;
7843;SDS011;3967;48.702;9.326;2023-03-20T09:16:29;0.57;;;0.57;;
7843;SDS011;3967;48.702;9.326;2023-03-20T09:18:56;1.40;;;0.87;;
7843;SDS011;3967;48.702;9.326;2023-03-20T09:21:23;0.60;;;0.60;;
7843;SDS011;3967;48.702;9.326;2023-03-20T09:23:49;0.73;;;0.73;;
7843;SDS011;3967;48.702;9.326;2023-03-20T09:26:16;2.23;;;0.77;;
7843;SDS011;3967;48.702;9.326;2023-03-20T09:28:43;3.50;;;0.80;;
7843;SDS011;3967;48.702;9.326;2023-03-20T09:31:09;2.27;;;0.83;;
7843;SDS011;3967;48.702;9.326;2023-03-20T09:33:37;1.63;;;0.50;;
7843;SDS011;3967;48.702;9.326;2023-03-20T09:36:04;0.60;;;0.60;;
7843;SDS011;3967;48.702;9.326;2023-03-20T09:38:33;1.73;;;0.80;;
7843;SDS011;3967;48.702;9.326;2023-03-20T09:41:00;1.67;;;0.80;;
7843;SDS011;3967;48.702;9.326;2023-03-20T09:48:40;0.73;;;0.73;;
7843;SDS011;3967;48.702;9.326;2023-03-20T09:51:21;1.10;;;0.80;;
7843;SDS011;3967;48.702;9.326;2023-03-20T09:53:55;1.83;;;0.80;;
7843;SDS011;3967;48.702;9.326;2023-03-20T09:56:26;0.80;;;0.80;;
7843;SDS011;3967;48.702;9.326;2023-03-20T09:58:57;3.70;;;0.77;;
7843;SDS011;3967;48.702;9.326;2023-03-20T10:01:29;0.70;;;0.50;;
7843;SDS011;3967;48.702;9.326;2023-03-20T10:04:17;2.20;;;0.80;;
7843;SDS011;3967;48.702;9.326;2023-03-20T10:06:45;0.50;;;0.50;;
7843;SDS011;3967;48.702;9.326;2023-03-20T10:09:16;0.60;;;0.60;;
7843;SDS011;3967;48.702;9.326;2023-03-20T10:14:29;1.23;;;0.50;;
7843;SDS011;3967;48.702;9.326;2023-03-20T10:22:19;0.63;;;0.63;;
7843;SDS011;3967;48.702;9.326;2023-03-20T10:24:55;1.93;;;0.53;;
7843;SDS011;3967;48.702;9.326;2023-03-20T10:27:43;0.50;;;0.50;;
7843;SDS011;3967;48.702;9.326;2023-03-20T10:33:47;2.57;;;0.60;;
7843;SDS011;3967;48.702;9.326;2023-03-20T10:38:45;1.03;;;0.70;;
7843;SDS011;3967;48.702;9.326;2023-03-20T10:41:23;1.10;;;0.80;;
7843;SDS011;3967;48.702;9.326;2023-03-20T10:43:54;0.67;;;0.67;;
7843;SDS011;3967;48.702;9.326;2023-03-20T10:46:24;1.53;;;1.17;;
7843;SDS011;3967;48.702;9.326;2023-03-20T10:49:02;2.27;;;0.77;;
7843;SDS011;3967;48.702;9.326;2023-03-20T10:51:41;2.03;;;0.60;;
7843;SDS011;3967;48.702;9.326;2023-03-20T10:54:22;0.70;;;0.70;;
7843;SDS011;3967;48.702;9.326;2023-03-20T10:56:53;1.40;;;0.60;;
7843;SDS011;3967;48.702;9.326;2023-03-20T10:59:26;2.87;;;1.70;;
7843;SDS011;3967;48.702;9.326;2023-03-20T11:01:54;1.40;;;0.40;;
7843;SDS011;3967;48.702;9.326;2023-03-20T11:04:21;2.03;;;0.60;;
7843;SDS011;3967;48.702;9.326;2023-03-20T11:07:08;0.70;;;0.70;;
7843;SDS011;3967;48.702;9.326;2023-03-20T11:09:41;0.77;;;0.60;;
7843;SDS011;3967;48.702;9.326;2023-03-20T11:12:15;1.40;;;1.07;;
7843;SDS011;3967;48.702;9.326;2023-03-20T11:14:44;2.20;;;0.70;;
7843;SDS011;3967;48.702;9.326;2023-03-20T11:17:11;0.77;;;0.60;;
7843;SDS011;3967;48.702;9.326;2023-03-20T11:19:39;0.53;;;0.40;;
7843;SDS011;3967;48.702;9.326;2023-03-20T11:22:23;5.67;;;0.97;;
7843;SDS011;3967;48.702;9.326;2023-03-20T11:24:53;0.53;;;0.40;;
7843;SDS011;3967;48.702;9.326;2023-03-20T11:27:25;0.60;;;0.50;;
7843;SDS011;3967;48.702;9.326;2023-03-20T11:29:53;1.17;;;0.30;;
7843;SDS011;3967;48.702;9.326;2023-03-20T11:37:44;0.33;;;0.33;;
7843;SDS011;3967;48.702;9.326;2023-03-20T11:40:15;0.47;;;0.40;;
7843;SDS011;3967;48.702;9.326;2023-03-20T11:42:55;0.60;;;0.43;;
7843;SDS011;3967;48.702;9.326;2023-03-20T11:45:22;0.40;;;0.40;;
7843;SDS011;3967;48.702;9.326;2023-03-20T11:47:51;0.60;;;0.60;;
7843;SDS011;3967;48.702;9.326;2023-03-20T11:53:03;0.50;;;0.43;;
7843;SDS011;3967;48.702;9.326;2023-03-20T11:55:45;0.50;;;0.50;;
7843;SDS011;3967;48.702;9.326;2023-03-20T11:58:25;1.27;;;0.60;;
7843;SDS011;3967;48.702;9.326;2023-03-20T12:00:53;0.87;;;0.83;;
7843;SDS011;3967;48.702;9.326;2023-03-20T12:03:39;1.27;;;1.17;;
7843;SDS011;3967;48.702;9.326;2023-03-20T12:06:25;1.43;;;1.33;;
7843;SDS011;3967;48.702;9.326;2023-03-20T12:09:02;3.30;;;1.60;;
7843;SDS011;3967;48.702;9.326;2023-03-20T12:14:11;1.60;;;1.50;;
7843;SDS011;3967;48.702;9.326;2023-03-20T12:16:53;2.73;;;1.60;;
7843;SDS011;3967;48.702;9.326;2023-03-20T12:19:32;2.60;;;1.83;;
7843;SDS011;3967;48.702;9.326;2023-03-20T12:24:52;2.50;;;2.30;;
7843;SDS011;3967;48.702;9.326;2023-03-20T12:32:46;4.50;;;2.87;;
7843;SDS011;3967;48.702;9.326;2023-03-20T12:35:29;2.37;;;2.17;;
7843;SDS011;3967;48.702;9.326;2023-03-20T12:37:57;2.83;;;2.30;;
7843;SDS011;3967;48.702;9.326;2023-03-20T12:40:41;2.87;;;2.50;;
7843;SDS011;3967;48.702;9.326;2023-03-20T12:43:17;3.07;;;2.80;;
7843;SDS011;3967;48.702;9.326;2023-03-20T12:46:01;3.27;;;2.97;;
7843;SDS011;3967;48.702;9.326;2023-03-20T12:48:36;3.57;;;3.07;;
7843;SDS011;3967;48.702;9.326;2023-03-20T12:54:09;3.97;;;3.30;;
7843;SDS011;3967;48.702;9.326;2023-03-20T13:01:46;2.60;;;2.40;;
7843;SDS011;3967;48.702;9.326;2023-03-20T13:10:19;3.33;;;2.67;;
7843;SDS011;3967;48.702;9.326;2023-03-20T13:20:33;2.20;;;2.00;;
7843;SDS011;3967;48.702;9.326;2023-03-20T13:33:48;1.77;;;1.40;;
7843;SDS011;3967;48.702;9.326;2023-03-20T13:39:33;1.30;;;1.20;;
7843;SDS011;3967;48.702;9.326;2023-03-20T13:42:07;1.67;;;1.17;;
7843;SDS011;3967;48.702;9.326;2023-03-20T13:44:39;1.30;;;1.20;;
7843;SDS011;3967;48.702;9.326;2023-03-20T13:49:56;1.03;;;1.03;;
7843;SDS011;3967;48.702;9.326;2023-03-20T13:53:01;1.20;;;1.10;;
7843;SDS011;3967;48.702;9.326;2023-03-20T14:03:39;1.50;;;1.40;;
7843;SDS011;3967;48.702;9.326;2023-03-20T14:08:56;1.53;;;1.43;;
7843;SDS011;3967;48.702;9.326;2023-03-20T14:13:51;1.73;;;1.40;;
7843;SDS011;3967;48.702;9.326;2023-03-20T14:16:25;2.80;;;1.50;;
7843;SDS011;3967;48.702;9.326;2023-03-20T14:21:54;1.77;;;1.40;;
7843;SDS011;3967;48.702;9.326;2023-03-20T14:24:22;1.57;;;1.40;;
7843;SDS011;3967;48.702;9.326;2023-03-20T14:26:54;1.40;;;1.30;;
7843;SDS011;3967;48.702;9.326;2023-03-20T14:32:03;1.80;;;1.30;;
7843;SDS011;3967;48.702;9.326;2023-03-20T14:34:46;1.33;;;1.27;;
7843;SDS011;3967;48.702;9.326;2023-03-20T14:37:26;1.30;;;1.27;;
7843;SDS011;3967;48.702;9.326;2023-03-20T14:53:18;2.37;;;2.17;;
7843;SDS011;3967;48.702;9.326;2023-03-20T15:01:07;2.43;;;2.03;;
7843;SDS011;3967;48.702;9.326;2023-03-20T15:03:46;3.50;;;2.07;;
7843;SDS011;3967;48.702;9.326;2023-03-20T15:06:21;3.10;;;1.83;;
7843;SDS011;3967;48.702;9.326;2023-03-20T15:08:54;1.80;;;1.60;;
7843;SDS011;3967;48.702;9.326;2023-03-20T15:11:25;2.93;;;1.77;;
7843;SDS011;3967;48.702;9.326;2023-03-20T15:13:52;1.87;;;1.77;;
7843;SDS011;3967;48.702;9.326;2023-03-20T15:16:31;2.20;;;1.93;;
7843;SDS011;3967;48.702;9.326;2023-03-20T15:18:59;3.37;;;2.30;;
7843;SDS011;3967;48.702;9.326;2023-03-20T15:21:38;2.03;;;1.70;;
7843;SDS011;3967;48.702;9.326;2023-03-20T15:24:09;2.63;;;2.00;;
7843;SDS011;3967;48.702;9.326;2023-03-20T15:26:58;2.27;;;2.00;;
7843;SDS011;3967;48.702;9.326;2023-03-20T15:29:26;2.40;;;1.83;;
7843;SDS011;3967;48.702;9.326;2023-03-20T15:31:57;1.93;;;1.80;;
7843;SDS011;3967;48.702;9.326;2023-03-20T15:34:40;3.50;;;2.30;;
7843;SDS011;3967;48.702;9.326;2023-03-20T15:37:08;1.70;;;1.60;;
7843;SDS011;3967;48.702;9.326;2023-03-20T15:39:50;1.60;;;1.37;;
7843;SDS011;3967;48.702;9.326;2023-03-20T15:42:22;2.47;;;1.73;;
7843;SDS011;3967;48.702;9.326;2023-03-20T15:44:51;2.57;;;1.77;;
7843;SDS011;3967;48.702;9.326;2023-03-20T15:47:20;3.27;;;1.80;;
7843;SDS011;3967;48.702;9.326;2023-03-20T15:49:56;2.57;;;1.53;;
7843;SDS011;3967;48.702;9.326;2023-03-20T15:52:33;2.60;;;2.20;;
7843;SDS011;3967;48.702;9.326;2023-03-20T15:55:16;3.37;;;2.57;;
7843;SDS011;3967;48.702;9.326;2023-03-20T15:57:45;1.77;;;1.67;;
7843;SDS011;3967;48.702;9.326;2023-03-20T16:00:19;1.80;;;1.70;;
7843;SDS011;3967;48.702;9.326;2023-03-20T16:02:47;8.13;;;6.87;;
7843;SDS011;3967;48.702;9.326;2023-03-20T16:05:16;4.37;;;3.63;;
7843;SDS011;3967;48.702;9.326;2023-03-20T16:07:44;2.40;;;1.60;;
7843;SDS011;3967;48.702;9.326;2023-03-20T16:10:15;1.50;;;1.40;;
7843;SDS011;3967;48.702;9.326;2023-03-20T16:12:49;2.00;;;1.90;;
7843;SDS011;3967;48.702;9.326;2023-03-20T16:15:20;2.27;;;1.70;;
7843;SDS011;3967;48.702;9.326;2023-03-20T16:17:51;3.67;;;1.87;;
7843;SDS011;3967;48.702;9.326;2023-03-20T16:20:21;2.20;;;1.40;;
7843;SDS011;3967;48.702;9.326;2023-03-20T16:22:52;1.80;;;1.70;;
7843;SDS011;3967;48.702;9.326;2023-03-20T16:25:22;2.60;;;2.40;;
7843;SDS011;3967;48.702;9.326;2023-03-20T16:27:49;2.50;;;1.80;;
7843;SDS011;3967;48.702;9.326;2023-03-20T16:30:18;4.30;;;1.60;;
7843;SDS011;3967;48.702;9.326;2023-03-20T16:32:54;1.57;;;1.47;;
7843;SDS011;3967;48.702;9.326;2023-03-20T16:35:30;1.30;;;1.00;;
7843;SDS011;3967;48.702;9.326;2023-03-20T16:38:12;1.40;;;0.80;;
7843;SDS011;3967;48.702;9.326;2023-03-20T16:40:40;0.73;;;0.60;;
7843;SDS011;3967;48.702;9.326;2023-03-20T16:43:15;1.63;;;1.00;;
7843;SDS011;3967;48.702;9.326;2023-03-20T16:45:45;1.97;;;0.73;;
7843;SDS011;3967;48.702;9.326;2023-03-20T16:51:16;0.60;;;0.60;;
7843;SDS011;3967;48.702;9.326;2023-03-20T16:53:50;1.20;;;0.93;;
7843;SDS011;3967;48.702;9.326;2023-03-20T16:56:27;1.43;;;0.83;;
7843;SDS011;3967;48.702;9.326;2023-03-20T16:58:54;1.40;;;1.10;;
7843;SDS011;3967;48.702;9.326;2023-03-20T17:01:22;0.90;;;0.80;;
7843;SDS011;3967;48.702;9.326;2023-03-20T17:03:53;1.10;;;1.10;;
7843;SDS011;3967;48.702;9.326;2023-03-20T17:08:51;2.57;;;1.07;;
7843;SDS011;3967;48.702;9.326;2023-03-20T17:11:33;1.17;;;1.07;;
7843;SDS011;3967;48.702;9.326;2023-03-20T17:14:02;1.17;;;0.70;;
7843;SDS011;3967;48.702;9.326;2023-03-20T17:16:30;0.90;;;0.90;;
7843;SDS011;3967;48.702;9.326;2023-03-20T17:21:35;0.70;;;0.70;;
7843;SDS011;3967;48.702;9.326;2023-03-20T17:24:02;1.97;;;0.80;;
7843;SDS011;3967;48.702;9.326;2023-03-20T17:26:29;0.80;;;0.80;;
7843;SDS011;3967;48.702;9.326;2023-03-20T17:28:56;2.50;;;1.20;;
7843;SDS011;3967;48.702;9.326;2023-03-20T17:31:23;0.80;;;0.80;;
7843;SDS011;3967;48.702;9.326;2023-03-20T17:33:51;1.03;;;0.97;;
7843;SDS011;3967;48.702;9.326;2023-03-20T17:36:20;1.93;;;1.00;;
7843;SDS011;3967;48.702;9.326;2023-03-20T17:38:56;1.07;;;0.97;;
7843;SDS011;3967;48.702;9.326;2023-03-20T17:41:24;2.50;;;0.83;;
7843;SDS011;3967;48.702;9.326;2023-03-20T17:43:51;1.23;;;1.00;;
7843;SDS011;3967;48.702;9.326;2023-03-20T17:49:03;1.27;;;0.90;;
7843;SDS011;3967;48.702;9.326;2023-03-20T17:51:32;0.90;;;0.80;;
7843;SDS011;3967;48.702;9.326;2023-03-20T17:54:00;1.83;;;1.60;;
7843;SDS011;3967;48.702;9.326;2023-03-20T17:56:27;1.50;;;1.40;;
7843;SDS011;3967;48.702;9.326;2023-03-20T17:58:56;1.47;;;1.37;;
7843;SDS011;3967;48.702;9.326;2023-03-20T18:01:23;2.00;;;1.70;;
7843;SDS011;3967;48.702;9.326;2023-03-20T18:03:50;2.00;;;1.70;;
7843;SDS011;3967;48.702;9.326;2023-03-20T18:06:22;1.67;;;1.37;;
7843;SDS011;3967;48.702;9.326;2023-03-20T18:08:57;2.63;;;1.87;;
7843;SDS011;3967;48.702;9.326;2023-03-20T18:11:26;2.40;;;2.20;;
7843;SDS011;3967;48.702;9.326;2023-03-20T18:13:53;2.63;;;2.03;;
7843;SDS011;3967;48.702;9.326;2023-03-20T18:16:24;1.97;;;1.60;;
7843;SDS011;3967;48.702;9.326;2023-03-20T18:18:52;2.17;;;1.60;;
7843;SDS011;3967;48.702;9.326;2023-03-20T18:21:19;2.17;;;1.90;;